sensor_id;sensor_type;location;lat;lon;timestamp;P1;durP1;ratioP1;P2;durP2;ratioP2
71771;SDS011;59606;52.138;5.424;2023-08-06T00:00:28;8.95;;;5.43;;
71771;SDS011;59606;52.138;5.424;2023-08-06T00:02:54;9.18;;;4.80;;
71771;SDS011;59606;52.138;5.424;2023-08-06T00:05:21;9.70;;;4.77;;
71771;SDS011;59606;52.138;5.424;2023-08-06T00:07:48;9.00;;;4.65;;
71771;SDS011;59606;52.138;5.424;2023-08-06T00:10:15;10.35;;;4.90;;
71771;SDS011;59606;52.138;5.424;2023-08-06T00:12:43;8.40;;;4.95;;
71771;SDS011;59606;52.138;5.424;2023-08-06T00:15:10;9.73;;;4.75;;
71771;SDS011;59606;52.138;5.424;2023-08-06T00:17:37;9.10;;;4.67;;
71771;SDS011;59606;52.138;5.424;2023-08-06T00:20:05;7.93;;;4.57;;
71771;SDS011;59606;52.138;5.424;2023-08-06T00:22:36;9.40;;;4.38;;
71771;SDS011;59606;52.138;5.424;2023-08-06T00:25:04;10.50;;;5.22;;
71771;SDS011;59606;52.138;5.424;2023-08-06T00:27:31;12.35;;;5.70;;
71771;SDS011;59606;52.138;5.424;2023-08-06T00:29:59;10.73;;;5.30;;
71771;SDS011;59606;52.138;5.424;2023-08-06T00:32:25;11.98;;;4.80;;
71771;SDS011;59606;52.138;5.424;2023-08-06T00:34:52;9.48;;;5.03;;
71771;SDS011;59606;52.138;5.424;2023-08-06T00:37:18;10.27;;;4.80;;
71771;SDS011;59606;52.138;5.424;2023-08-06T00:39:45;11.60;;;4.85;;
71771;SDS011;59606;52.138;5.424;2023-08-06T00:42:12;11.37;;;4.87;;
71771;SDS011;59606;52.138;5.424;2023-08-06T00:44:38;9.48;;;5.10;;
71771;SDS011;59606;52.138;5.424;2023-08-06T00:47:06;9.13;;;4.70;;
71771;SDS011;59606;52.138;5.424;2023-08-06T00:49:35;8.50;;;4.93;;
71771;SDS011;59606;52.138;5.424;2023-08-06T00:52:03;11.05;;;4.90;;
71771;SDS011;59606;52.138;5.424;2023-08-06T00:54:31;10.50;;;5.17;;
71771;SDS011;59606;52.138;5.424;2023-08-06T00:56:58;9.00;;;4.53;;
71771;SDS011;59606;52.138;5.424;2023-08-06T00:59:27;8.48;;;4.97;;
71771;SDS011;59606;52.138;5.424;2023-08-06T01:01:55;9.45;;;5.22;;
71771;SDS011;59606;52.138;5.424;2023-08-06T01:04:22;10.45;;;5.05;;
71771;SDS011;59606;52.138;5.424;2023-08-06T01:06:52;8.80;;;5.67;;
71771;SDS011;59606;52.138;5.424;2023-08-06T01:12:24;10.52;;;5.75;;
71771;SDS011;59606;52.138;5.424;2023-08-06T01:15:03;15.05;;;5.63;;
71771;SDS011;59606;52.138;5.424;2023-08-06T01:17:35;9.07;;;5.53;;
71771;SDS011;59606;52.138;5.424;2023-08-06T01:20:02;10.03;;;6.03;;
71771;SDS011;59606;52.138;5.424;2023-08-06T01:22:30;10.23;;;5.75;;
71771;SDS011;59606;52.138;5.424;2023-08-06T01:24:56;10.27;;;5.43;;
71771;SDS011;59606;52.138;5.424;2023-08-06T01:30:25;9.73;;;5.35;;
71771;SDS011;59606;52.138;5.424;2023-08-06T01:32:58;12.37;;;5.97;;
71771;SDS011;59606;52.138;5.424;2023-08-06T01:35:26;9.63;;;5.57;;
71771;SDS011;59606;52.138;5.424;2023-08-06T01:37:55;11.35;;;6.05;;
71771;SDS011;59606;52.138;5.424;2023-08-06T01:40:23;12.13;;;5.28;;
71771;SDS011;59606;52.138;5.424;2023-08-06T01:42:49;10.80;;;5.28;;
71771;SDS011;59606;52.138;5.424;2023-08-06T01:45:16;15.60;;;6.37;;
71771;SDS011;59606;52.138;5.424;2023-08-06T01:47:42;13.23;;;6.60;;
71771;SDS011;59606;52.138;5.424;2023-08-06T01:50:09;11.70;;;5.85;;
71771;SDS011;59606;52.138;5.424;2023-08-06T01:52:35;11.60;;;6.10;;
71771;SDS011;59606;52.138;5.424;2023-08-06T01:55:02;15.13;;;6.03;;
71771;SDS011;59606;52.138;5.424;2023-08-06T01:57:29;14.13;;;6.60;;
71771;SDS011;59606;52.138;5.424;2023-08-06T01:59:55;15.20;;;7.07;;
71771;SDS011;59606;52.138;5.424;2023-08-06T02:02:22;12.65;;;6.32;;
71771;SDS011;59606;52.138;5.424;2023-08-06T02:04:49;15.70;;;7.13;;
71771;SDS011;59606;52.138;5.424;2023-08-06T02:07:16;14.32;;;6.88;;
71771;SDS011;59606;52.138;5.424;2023-08-06T02:09:42;12.17;;;7.13;;
71771;SDS011;59606;52.138;5.424;2023-08-06T02:12:09;13.15;;;7.28;;
71771;SDS011;59606;52.138;5.424;2023-08-06T02:14:35;11.65;;;6.97;;
71771;SDS011;59606;52.138;5.424;2023-08-06T02:17:02;11.95;;;7.20;;
71771;SDS011;59606;52.138;5.424;2023-08-06T02:19:29;14.63;;;7.57;;
71771;SDS011;59606;52.138;5.424;2023-08-06T02:21:56;13.43;;;7.00;;
71771;SDS011;59606;52.138;5.424;2023-08-06T02:24:22;14.02;;;7.28;;
71771;SDS011;59606;52.138;5.424;2023-08-06T02:26:49;13.57;;;7.43;;
71771;SDS011;59606;52.138;5.424;2023-08-06T02:29:17;14.20;;;6.88;;
71771;SDS011;59606;52.138;5.424;2023-08-06T02:31:44;17.42;;;7.85;;
71771;SDS011;59606;52.138;5.424;2023-08-06T02:34:10;15.47;;;7.50;;
71771;SDS011;59606;52.138;5.424;2023-08-06T02:36:37;16.05;;;7.72;;
71771;SDS011;59606;52.138;5.424;2023-08-06T02:39:04;14.02;;;7.63;;
71771;SDS011;59606;52.138;5.424;2023-08-06T02:41:30;12.23;;;6.43;;
71771;SDS011;59606;52.138;5.424;2023-08-06T02:43:57;11.63;;;6.25;;
71771;SDS011;59606;52.138;5.424;2023-08-06T02:46:23;11.13;;;6.63;;
71771;SDS011;59606;52.138;5.424;2023-08-06T02:48:50;11.75;;;6.25;;
71771;SDS011;59606;52.138;5.424;2023-08-06T02:51:16;13.38;;;5.95;;
71771;SDS011;59606;52.138;5.424;2023-08-06T02:53:43;12.07;;;6.03;;
71771;SDS011;59606;52.138;5.424;2023-08-06T02:56:09;9.25;;;5.53;;
71771;SDS011;59606;52.138;5.424;2023-08-06T02:58:36;9.67;;;5.57;;
71771;SDS011;59606;52.138;5.424;2023-08-06T03:01:03;9.77;;;6.10;;
71771;SDS011;59606;52.138;5.424;2023-08-06T03:03:31;10.75;;;5.63;;
71771;SDS011;59606;52.138;5.424;2023-08-06T03:05:59;9.68;;;5.05;;
71771;SDS011;59606;52.138;5.424;2023-08-06T03:08:27;9.38;;;5.63;;
71771;SDS011;59606;52.138;5.424;2023-08-06T03:10:54;10.27;;;5.53;;
71771;SDS011;59606;52.138;5.424;2023-08-06T03:13:20;8.90;;;5.40;;
71771;SDS011;59606;52.138;5.424;2023-08-06T03:15:56;9.90;;;5.57;;
71771;SDS011;59606;52.138;5.424;2023-08-06T03:18:24;8.65;;;5.60;;
71771;SDS011;59606;52.138;5.424;2023-08-06T03:20:54;9.00;;;5.50;;
71771;SDS011;59606;52.138;5.424;2023-08-06T03:23:21;9.80;;;5.50;;
71771;SDS011;59606;52.138;5.424;2023-08-06T03:25:48;10.93;;;5.40;;
71771;SDS011;59606;52.138;5.424;2023-08-06T03:28:14;15.35;;;5.85;;
71771;SDS011;59606;52.138;5.424;2023-08-06T03:30:41;11.10;;;5.72;;
71771;SDS011;59606;52.138;5.424;2023-08-06T03:33:07;12.70;;;6.15;;
71771;SDS011;59606;52.138;5.424;2023-08-06T03:35:34;9.70;;;6.00;;
71771;SDS011;59606;52.138;5.424;2023-08-06T03:38:01;9.18;;;5.78;;
71771;SDS011;59606;52.138;5.424;2023-08-06T03:40:28;11.73;;;6.40;;
71771;SDS011;59606;52.138;5.424;2023-08-06T03:42:54;11.70;;;6.32;;
71771;SDS011;59606;52.138;5.424;2023-08-06T03:45:21;10.48;;;6.28;;
71771;SDS011;59606;52.138;5.424;2023-08-06T03:47:47;11.50;;;6.87;;
71771;SDS011;59606;52.138;5.424;2023-08-06T03:50:14;13.25;;;6.68;;
71771;SDS011;59606;52.138;5.424;2023-08-06T03:52:40;13.10;;;7.03;;
71771;SDS011;59606;52.138;5.424;2023-08-06T03:55:07;12.88;;;7.07;;
71771;SDS011;59606;52.138;5.424;2023-08-06T03:57:34;14.88;;;7.35;;
71771;SDS011;59606;52.138;5.424;2023-08-06T04:00:00;13.20;;;7.20;;
71771;SDS011;59606;52.138;5.424;2023-08-06T04:02:27;12.32;;;7.75;;
71771;SDS011;59606;52.138;5.424;2023-08-06T04:04:54;12.23;;;7.30;;
71771;SDS011;59606;52.138;5.424;2023-08-06T04:07:20;13.07;;;7.78;;
71771;SDS011;59606;52.138;5.424;2023-08-06T04:09:51;14.93;;;8.80;;
71771;SDS011;59606;52.138;5.424;2023-08-06T04:12:19;16.93;;;7.77;;
71771;SDS011;59606;52.138;5.424;2023-08-06T04:14:48;15.10;;;8.32;;
71771;SDS011;59606;52.138;5.424;2023-08-06T04:17:14;15.95;;;8.65;;
71771;SDS011;59606;52.138;5.424;2023-08-06T04:19:41;14.13;;;7.80;;
71771;SDS011;59606;52.138;5.424;2023-08-06T04:22:07;14.48;;;7.93;;
71771;SDS011;59606;52.138;5.424;2023-08-06T04:24:34;14.80;;;8.00;;
71771;SDS011;59606;52.138;5.424;2023-08-06T04:27:00;16.05;;;8.68;;
71771;SDS011;59606;52.138;5.424;2023-08-06T04:29:27;15.93;;;8.45;;
71771;SDS011;59606;52.138;5.424;2023-08-06T04:31:53;15.45;;;9.07;;
71771;SDS011;59606;52.138;5.424;2023-08-06T04:34:21;16.40;;;9.07;;
71771;SDS011;59606;52.138;5.424;2023-08-06T04:36:48;17.20;;;9.50;;
71771;SDS011;59606;52.138;5.424;2023-08-06T04:39:15;15.40;;;9.50;;
71771;SDS011;59606;52.138;5.424;2023-08-06T04:41:41;17.77;;;9.30;;
71771;SDS011;59606;52.138;5.424;2023-08-06T04:44:07;15.98;;;9.18;;
71771;SDS011;59606;52.138;5.424;2023-08-06T04:46:34;18.05;;;9.73;;
71771;SDS011;59606;52.138;5.424;2023-08-06T04:49:01;17.07;;;9.40;;
71771;SDS011;59606;52.138;5.424;2023-08-06T04:51:27;20.10;;;9.70;;
71771;SDS011;59606;52.138;5.424;2023-08-06T04:53:54;16.20;;;9.70;;
71771;SDS011;59606;52.138;5.424;2023-08-06T04:56:20;18.45;;;9.35;;
71771;SDS011;59606;52.138;5.424;2023-08-06T04:58:47;21.83;;;10.60;;
71771;SDS011;59606;52.138;5.424;2023-08-06T05:01:13;16.73;;;9.60;;
71771;SDS011;59606;52.138;5.424;2023-08-06T05:03:40;18.80;;;10.40;;
71771;SDS011;59606;52.138;5.424;2023-08-06T05:06:06;18.27;;;9.85;;
71771;SDS011;59606;52.138;5.424;2023-08-06T05:08:33;17.13;;;10.00;;
71771;SDS011;59606;52.138;5.424;2023-08-06T05:10:59;18.88;;;9.88;;
71771;SDS011;59606;52.138;5.424;2023-08-06T05:13:26;16.77;;;9.60;;
71771;SDS011;59606;52.138;5.424;2023-08-06T05:15:53;17.30;;;10.15;;
71771;SDS011;59606;52.138;5.424;2023-08-06T05:18:20;19.80;;;10.32;;
71771;SDS011;59606;52.138;5.424;2023-08-06T05:20:47;21.50;;;10.52;;
71771;SDS011;59606;52.138;5.424;2023-08-06T05:23:13;16.95;;;9.77;;
71771;SDS011;59606;52.138;5.424;2023-08-06T05:25:40;21.17;;;11.00;;
71771;SDS011;59606;52.138;5.424;2023-08-06T05:28:06;17.63;;;10.40;;
71771;SDS011;59606;52.138;5.424;2023-08-06T05:30:33;18.98;;;10.77;;
71771;SDS011;59606;52.138;5.424;2023-08-06T05:32:59;19.58;;;10.80;;
71771;SDS011;59606;52.138;5.424;2023-08-06T05:35:26;21.65;;;10.95;;
71771;SDS011;59606;52.138;5.424;2023-08-06T05:37:53;20.83;;;10.53;;
71771;SDS011;59606;52.138;5.424;2023-08-06T05:40:19;21.25;;;10.63;;
71771;SDS011;59606;52.138;5.424;2023-08-06T05:42:46;20.42;;;11.40;;
71771;SDS011;59606;52.138;5.424;2023-08-06T05:45:12;18.65;;;10.32;;
71771;SDS011;59606;52.138;5.424;2023-08-06T05:47:39;19.77;;;10.38;;
71771;SDS011;59606;52.138;5.424;2023-08-06T05:50:06;18.40;;;10.60;;
71771;SDS011;59606;52.138;5.424;2023-08-06T05:52:33;22.10;;;10.80;;
71771;SDS011;59606;52.138;5.424;2023-08-06T05:54:59;21.13;;;10.55;;
71771;SDS011;59606;52.138;5.424;2023-08-06T05:57:26;20.77;;;11.00;;
71771;SDS011;59606;52.138;5.424;2023-08-06T05:59:52;21.00;;;10.48;;
71771;SDS011;59606;52.138;5.424;2023-08-06T06:02:19;16.83;;;9.67;;
71771;SDS011;59606;52.138;5.424;2023-08-06T06:04:45;20.42;;;10.85;;
71771;SDS011;59606;52.138;5.424;2023-08-06T06:07:12;20.40;;;9.57;;
71771;SDS011;59606;52.138;5.424;2023-08-06T06:09:38;20.48;;;11.13;;
71771;SDS011;59606;52.138;5.424;2023-08-06T06:12:06;18.40;;;11.35;;
71771;SDS011;59606;52.138;5.424;2023-08-06T06:14:32;21.63;;;11.80;;
71771;SDS011;59606;52.138;5.424;2023-08-06T06:16:59;20.80;;;11.80;;
71771;SDS011;59606;52.138;5.424;2023-08-06T06:19:28;21.45;;;11.57;;
71771;SDS011;59606;52.138;5.424;2023-08-06T06:21:55;20.88;;;11.00;;
71771;SDS011;59606;52.138;5.424;2023-08-06T06:24:24;22.45;;;11.57;;
71771;SDS011;59606;52.138;5.424;2023-08-06T06:26:50;19.60;;;10.77;;
71771;SDS011;59606;52.138;5.424;2023-08-06T06:29:17;22.90;;;12.10;;
71771;SDS011;59606;52.138;5.424;2023-08-06T06:31:43;19.58;;;10.85;;
71771;SDS011;59606;52.138;5.424;2023-08-06T06:34:10;21.73;;;11.75;;
71771;SDS011;59606;52.138;5.424;2023-08-06T06:36:36;20.33;;;10.82;;
71771;SDS011;59606;52.138;5.424;2023-08-06T06:39:03;18.87;;;10.60;;
71771;SDS011;59606;52.138;5.424;2023-08-06T06:41:29;19.75;;;11.27;;
71771;SDS011;59606;52.138;5.424;2023-08-06T06:43:58;19.75;;;10.95;;
71771;SDS011;59606;52.138;5.424;2023-08-06T06:46:25;18.08;;;10.02;;
71771;SDS011;59606;52.138;5.424;2023-08-06T06:48:52;19.80;;;9.70;;
71771;SDS011;59606;52.138;5.424;2023-08-06T06:51:18;19.80;;;10.30;;
71771;SDS011;59606;52.138;5.424;2023-08-06T06:53:45;20.95;;;10.13;;
71771;SDS011;59606;52.138;5.424;2023-08-06T06:56:11;20.15;;;10.70;;
71771;SDS011;59606;52.138;5.424;2023-08-06T06:58:38;20.13;;;10.07;;
71771;SDS011;59606;52.138;5.424;2023-08-06T07:01:05;18.45;;;9.68;;
71771;SDS011;59606;52.138;5.424;2023-08-06T07:03:32;20.83;;;10.53;;
71771;SDS011;59606;52.138;5.424;2023-08-06T07:05:58;18.65;;;10.45;;
71771;SDS011;59606;52.138;5.424;2023-08-06T07:08:25;18.25;;;10.07;;
71771;SDS011;59606;52.138;5.424;2023-08-06T07:10:59;17.67;;;10.52;;
71771;SDS011;59606;52.138;5.424;2023-08-06T07:13:27;19.45;;;10.27;;
71771;SDS011;59606;52.138;5.424;2023-08-06T07:15:54;18.70;;;10.07;;
71771;SDS011;59606;52.138;5.424;2023-08-06T07:18:21;20.27;;;10.20;;
71771;SDS011;59606;52.138;5.424;2023-08-06T07:20:51;19.92;;;10.32;;
71771;SDS011;59606;52.138;5.424;2023-08-06T07:23:20;19.52;;;10.65;;
71771;SDS011;59606;52.138;5.424;2023-08-06T07:25:47;18.52;;;9.82;;
71771;SDS011;59606;52.138;5.424;2023-08-06T07:28:14;19.40;;;10.70;;
71771;SDS011;59606;52.138;5.424;2023-08-06T07:30:42;18.50;;;10.50;;
71771;SDS011;59606;52.138;5.424;2023-08-06T07:33:09;20.00;;;10.43;;
71771;SDS011;59606;52.138;5.424;2023-08-06T07:35:36;16.75;;;10.45;;
71771;SDS011;59606;52.138;5.424;2023-08-06T07:38:03;19.33;;;10.13;;
71771;SDS011;59606;52.138;5.424;2023-08-06T07:40:30;18.90;;;10.67;;
71771;SDS011;59606;52.138;5.424;2023-08-06T07:42:56;18.88;;;10.50;;
71771;SDS011;59606;52.138;5.424;2023-08-06T07:45:23;16.92;;;9.77;;
71771;SDS011;59606;52.138;5.424;2023-08-06T07:47:50;20.38;;;11.10;;
71771;SDS011;59606;52.138;5.424;2023-08-06T07:50:17;19.17;;;10.07;;
71771;SDS011;59606;52.138;5.424;2023-08-06T07:52:44;17.27;;;9.53;;
71771;SDS011;59606;52.138;5.424;2023-08-06T07:55:11;18.08;;;9.68;;
71771;SDS011;59606;52.138;5.424;2023-08-06T07:57:37;18.55;;;11.05;;
71771;SDS011;59606;52.138;5.424;2023-08-06T08:00:04;19.05;;;9.75;;
71771;SDS011;59606;52.138;5.424;2023-08-06T08:02:31;20.08;;;10.20;;
71771;SDS011;59606;52.138;5.424;2023-08-06T08:04:58;16.27;;;9.17;;
71771;SDS011;59606;52.138;5.424;2023-08-06T08:07:24;17.42;;;9.80;;
71771;SDS011;59606;52.138;5.424;2023-08-06T08:09:51;20.20;;;10.23;;
71771;SDS011;59606;52.138;5.424;2023-08-06T08:12:17;16.77;;;9.90;;
71771;SDS011;59606;52.138;5.424;2023-08-06T08:14:44;18.83;;;9.07;;
71771;SDS011;59606;52.138;5.424;2023-08-06T08:17:11;17.90;;;10.20;;
71771;SDS011;59606;52.138;5.424;2023-08-06T08:19:39;17.80;;;9.88;;
71771;SDS011;59606;52.138;5.424;2023-08-06T08:22:06;19.67;;;10.15;;
71771;SDS011;59606;52.138;5.424;2023-08-06T08:24:33;15.13;;;8.07;;
71771;SDS011;59606;52.138;5.424;2023-08-06T08:26:59;10.52;;;5.63;;
71771;SDS011;59606;52.138;5.424;2023-08-06T08:29:26;7.53;;;4.03;;
71771;SDS011;59606;52.138;5.424;2023-08-06T08:31:54;8.85;;;4.60;;
71771;SDS011;59606;52.138;5.424;2023-08-06T08:34:21;7.35;;;3.78;;
71771;SDS011;59606;52.138;5.424;2023-08-06T08:36:48;6.05;;;3.33;;
71771;SDS011;59606;52.138;5.424;2023-08-06T08:39:16;4.53;;;2.55;;
71771;SDS011;59606;52.138;5.424;2023-08-06T08:41:44;3.88;;;2.22;;
71771;SDS011;59606;52.138;5.424;2023-08-06T08:44:10;3.83;;;2.20;;
71771;SDS011;59606;52.138;5.424;2023-08-06T08:46:42;2.85;;;1.60;;
71771;SDS011;59606;52.138;5.424;2023-08-06T08:49:10;3.67;;;1.60;;
71771;SDS011;59606;52.138;5.424;2023-08-06T08:51:37;2.88;;;1.70;;
71771;SDS011;59606;52.138;5.424;2023-08-06T08:54:04;1.93;;;1.20;;
71771;SDS011;59606;52.138;5.424;2023-08-06T08:56:31;3.05;;;1.75;;
71771;SDS011;59606;52.138;5.424;2023-08-06T08:58:58;2.60;;;1.50;;
71771;SDS011;59606;52.138;5.424;2023-08-06T09:01:26;3.15;;;1.77;;
71771;SDS011;59606;52.138;5.424;2023-08-06T09:03:54;2.05;;;1.30;;
71771;SDS011;59606;52.138;5.424;2023-08-06T09:06:25;3.97;;;1.70;;
71771;SDS011;59606;52.138;5.424;2023-08-06T09:08:56;3.92;;;1.33;;
71771;SDS011;59606;52.138;5.424;2023-08-06T09:11:29;3.42;;;1.70;;
71771;SDS011;59606;52.138;5.424;2023-08-06T09:14:06;4.95;;;1.50;;
71771;SDS011;59606;52.138;5.424;2023-08-06T09:16:36;3.92;;;1.58;;
71771;SDS011;59606;52.138;5.424;2023-08-06T09:19:21;3.93;;;1.50;;
71771;SDS011;59606;52.138;5.424;2023-08-06T09:21:50;3.35;;;1.63;;
71771;SDS011;59606;52.138;5.424;2023-08-06T09:24:18;3.33;;;1.55;;
71771;SDS011;59606;52.138;5.424;2023-08-06T09:26:45;3.92;;;1.80;;
71771;SDS011;59606;52.138;5.424;2023-08-06T09:29:12;3.55;;;1.83;;
71771;SDS011;59606;52.138;5.424;2023-08-06T09:31:45;4.10;;;1.97;;
71771;SDS011;59606;52.138;5.424;2023-08-06T09:34:16;4.80;;;2.28;;
71771;SDS011;59606;52.138;5.424;2023-08-06T09:36:47;7.05;;;2.38;;
71771;SDS011;59606;52.138;5.424;2023-08-06T09:39:17;5.00;;;2.10;;
71771;SDS011;59606;52.138;5.424;2023-08-06T09:41:46;4.35;;;2.50;;
71771;SDS011;59606;52.138;5.424;2023-08-06T09:44:16;6.37;;;2.47;;
71771;SDS011;59606;52.138;5.424;2023-08-06T09:49:44;7.60;;;2.70;;
71771;SDS011;59606;52.138;5.424;2023-08-06T09:52:12;5.63;;;2.92;;
71771;SDS011;59606;52.138;5.424;2023-08-06T09:54:39;5.72;;;2.75;;
71771;SDS011;59606;52.138;5.424;2023-08-06T09:57:08;5.33;;;2.53;;
71771;SDS011;59606;52.138;5.424;2023-08-06T09:59:35;6.20;;;3.05;;
71771;SDS011;59606;52.138;5.424;2023-08-06T10:02:07;5.55;;;2.40;;
71771;SDS011;59606;52.138;5.424;2023-08-06T10:04:38;7.55;;;3.20;;
71771;SDS011;59606;52.138;5.424;2023-08-06T10:07:07;7.55;;;3.10;;
71771;SDS011;59606;52.138;5.424;2023-08-06T10:09:34;8.13;;;3.33;;
71771;SDS011;59606;52.138;5.424;2023-08-06T10:12:01;8.77;;;3.10;;
71771;SDS011;59606;52.138;5.424;2023-08-06T10:14:30;8.68;;;3.65;;
71771;SDS011;59606;52.138;5.424;2023-08-06T10:16:59;8.57;;;3.75;;
71771;SDS011;59606;52.138;5.424;2023-08-06T10:19:27;5.95;;;3.58;;
71771;SDS011;59606;52.138;5.424;2023-08-06T10:22:08;7.30;;;3.07;;
71771;SDS011;59606;52.138;5.424;2023-08-06T10:27:13;8.27;;;3.60;;
71771;SDS011;59606;52.138;5.424;2023-08-06T10:29:45;7.40;;;3.22;;
71771;SDS011;59606;52.138;5.424;2023-08-06T10:32:12;7.47;;;3.60;;
71771;SDS011;59606;52.138;5.424;2023-08-06T10:35:27;7.63;;;3.00;;
71771;SDS011;59606;52.138;5.424;2023-08-06T10:37:36;7.90;;;3.85;;
71771;SDS011;59606;52.138;5.424;2023-08-06T10:40:03;6.13;;;3.55;;
71771;SDS011;59606;52.138;5.424;2023-08-06T10:42:33;11.02;;;3.80;;
71771;SDS011;59606;52.138;5.424;2023-08-06T10:45:16;6.65;;;3.33;;
71771;SDS011;59606;52.138;5.424;2023-08-06T10:47:44;11.60;;;3.57;;
71771;SDS011;59606;52.138;5.424;2023-08-06T10:50:12;9.75;;;3.42;;
71771;SDS011;59606;52.138;5.424;2023-08-06T10:52:46;10.45;;;3.28;;
71771;SDS011;59606;52.138;5.424;2023-08-06T10:55:13;6.70;;;2.55;;
71771;SDS011;59606;52.138;5.424;2023-08-06T10:57:40;5.82;;;2.60;;
71771;SDS011;59606;52.138;5.424;2023-08-06T11:00:07;8.60;;;2.80;;
71771;SDS011;59606;52.138;5.424;2023-08-06T11:02:42;8.23;;;3.10;;
71771;SDS011;59606;52.138;5.424;2023-08-06T11:05:10;4.97;;;2.47;;
71771;SDS011;59606;52.138;5.424;2023-08-06T11:07:39;5.68;;;2.45;;
71771;SDS011;59606;52.138;5.424;2023-08-06T11:10:09;6.93;;;2.65;;
71771;SDS011;59606;52.138;5.424;2023-08-06T11:12:38;5.87;;;2.47;;
71771;SDS011;59606;52.138;5.424;2023-08-06T11:15:05;5.88;;;2.50;;
71771;SDS011;59606;52.138;5.424;2023-08-06T11:17:33;6.18;;;2.22;;
71771;SDS011;59606;52.138;5.424;2023-08-06T11:20:04;4.75;;;1.67;;
71771;SDS011;59606;52.138;5.424;2023-08-06T11:22:31;4.70;;;1.90;;
71771;SDS011;59606;52.138;5.424;2023-08-06T11:24:58;5.87;;;2.10;;
71771;SDS011;59606;52.138;5.424;2023-08-06T11:27:25;5.70;;;2.17;;
71771;SDS011;59606;52.138;5.424;2023-08-06T11:29:53;4.47;;;1.60;;
71771;SDS011;59606;52.138;5.424;2023-08-06T11:32:20;4.18;;;1.75;;
71771;SDS011;59606;52.138;5.424;2023-08-06T11:34:46;7.60;;;1.80;;
71771;SDS011;59606;52.138;5.424;2023-08-06T11:37:13;5.27;;;1.77;;
71771;SDS011;59606;52.138;5.424;2023-08-06T11:39:39;4.97;;;1.80;;
71771;SDS011;59606;52.138;5.424;2023-08-06T11:42:12;4.88;;;1.65;;
71771;SDS011;59606;52.138;5.424;2023-08-06T11:44:40;8.40;;;1.88;;
71771;SDS011;59606;52.138;5.424;2023-08-06T11:47:15;7.28;;;1.63;;
71771;SDS011;59606;52.138;5.424;2023-08-06T11:49:44;5.17;;;1.57;;
71771;SDS011;59606;52.138;5.424;2023-08-06T11:52:14;5.68;;;2.05;;
71771;SDS011;59606;52.138;5.424;2023-08-06T11:57:37;4.68;;;1.83;;
71771;SDS011;59606;52.138;5.424;2023-08-06T12:00:06;5.35;;;1.60;;
71771;SDS011;59606;52.138;5.424;2023-08-06T12:02:35;3.30;;;1.70;;
71771;SDS011;59606;52.138;5.424;2023-08-06T12:05:13;6.65;;;1.85;;
71771;SDS011;59606;52.138;5.424;2023-08-06T12:07:41;4.85;;;1.95;;
71771;SDS011;59606;52.138;5.424;2023-08-06T12:10:09;4.82;;;1.70;;
71771;SDS011;59606;52.138;5.424;2023-08-06T12:12:36;8.35;;;1.83;;
71771;SDS011;59606;52.138;5.424;2023-08-06T12:15:05;6.93;;;1.57;;
71771;SDS011;59606;52.138;5.424;2023-08-06T12:17:32;5.28;;;1.80;;
71771;SDS011;59606;52.138;5.424;2023-08-06T12:19:59;5.78;;;1.40;;
71771;SDS011;59606;52.138;5.424;2023-08-06T12:22:26;5.68;;;1.52;;
71771;SDS011;59606;52.138;5.424;2023-08-06T12:24:52;4.53;;;1.55;;
71771;SDS011;59606;52.138;5.424;2023-08-06T12:27:19;3.07;;;1.10;;
71771;SDS011;59606;52.138;5.424;2023-08-06T12:29:47;6.32;;;1.40;;
71771;SDS011;59606;52.138;5.424;2023-08-06T12:32:14;6.15;;;1.58;;
71771;SDS011;59606;52.138;5.424;2023-08-06T12:34:42;2.70;;;1.25;;
71771;SDS011;59606;52.138;5.424;2023-08-06T12:37:18;2.13;;;0.95;;
71771;SDS011;59606;52.138;5.424;2023-08-06T12:39:45;5.03;;;1.23;;
71771;SDS011;59606;52.138;5.424;2023-08-06T12:42:11;4.03;;;1.38;;
71771;SDS011;59606;52.138;5.424;2023-08-06T12:44:38;3.17;;;1.10;;
71771;SDS011;59606;52.138;5.424;2023-08-06T12:47:06;3.97;;;1.38;;
71771;SDS011;59606;52.138;5.424;2023-08-06T12:49:33;3.53;;;1.45;;
71771;SDS011;59606;52.138;5.424;2023-08-06T12:52:01;2.97;;;1.30;;
71771;SDS011;59606;52.138;5.424;2023-08-06T12:54:28;3.97;;;1.30;;
71771;SDS011;59606;52.138;5.424;2023-08-06T12:56:55;2.28;;;1.45;;
71771;SDS011;59606;52.138;5.424;2023-08-06T12:59:22;6.38;;;1.33;;
71771;SDS011;59606;52.138;5.424;2023-08-06T13:01:48;2.92;;;1.48;;
71771;SDS011;59606;52.138;5.424;2023-08-06T13:04:15;3.33;;;1.30;;
71771;SDS011;59606;52.138;5.424;2023-08-06T13:06:48;6.00;;;1.60;;
71771;SDS011;59606;52.138;5.424;2023-08-06T13:09:15;6.63;;;1.60;;
71771;SDS011;59606;52.138;5.424;2023-08-06T13:11:41;4.70;;;1.48;;
71771;SDS011;59606;52.138;5.424;2023-08-06T13:14:10;5.43;;;1.48;;
71771;SDS011;59606;52.138;5.424;2023-08-06T13:16:38;2.73;;;1.53;;
71771;SDS011;59606;52.138;5.424;2023-08-06T13:19:08;3.40;;;1.65;;
71771;SDS011;59606;52.138;5.424;2023-08-06T13:21:35;4.13;;;1.77;;
71771;SDS011;59606;52.138;5.424;2023-08-06T13:24:24;6.00;;;1.75;;
71771;SDS011;59606;52.138;5.424;2023-08-06T13:26:51;5.32;;;1.80;;
71771;SDS011;59606;52.138;5.424;2023-08-06T13:29:18;5.43;;;1.70;;
71771;SDS011;59606;52.138;5.424;2023-08-06T13:31:44;4.18;;;1.48;;
71771;SDS011;59606;52.138;5.424;2023-08-06T13:34:11;4.80;;;1.75;;
71771;SDS011;59606;52.138;5.424;2023-08-06T13:36:38;3.33;;;1.70;;
71771;SDS011;59606;52.138;5.424;2023-08-06T13:39:05;4.55;;;1.88;;
71771;SDS011;59606;52.138;5.424;2023-08-06T13:41:32;6.57;;;1.70;;
71771;SDS011;59606;52.138;5.424;2023-08-06T13:43:59;6.90;;;1.73;;
71771;SDS011;59606;52.138;5.424;2023-08-06T13:46:25;4.97;;;1.90;;
71771;SDS011;59606;52.138;5.424;2023-08-06T13:48:52;6.40;;;1.58;;
71771;SDS011;59606;52.138;5.424;2023-08-06T13:51:19;4.13;;;1.67;;
71771;SDS011;59606;52.138;5.424;2023-08-06T13:53:45;5.13;;;1.40;;
71771;SDS011;59606;52.138;5.424;2023-08-06T13:56:12;3.95;;;1.65;;
71771;SDS011;59606;52.138;5.424;2023-08-06T13:58:41;6.10;;;1.55;;
71771;SDS011;59606;52.138;5.424;2023-08-06T14:01:09;5.88;;;1.58;;
71771;SDS011;59606;52.138;5.424;2023-08-06T14:03:37;4.45;;;1.80;;
71771;SDS011;59606;52.138;5.424;2023-08-06T14:06:04;5.17;;;1.37;;
71771;SDS011;59606;52.138;5.424;2023-08-06T14:08:30;3.25;;;1.60;;
71771;SDS011;59606;52.138;5.424;2023-08-06T14:10:57;4.75;;;1.70;;
71771;SDS011;59606;52.138;5.424;2023-08-06T14:13:23;4.97;;;1.67;;
71771;SDS011;59606;52.138;5.424;2023-08-06T14:15:50;3.33;;;1.88;;
71771;SDS011;59606;52.138;5.424;2023-08-06T14:18:17;5.17;;;2.10;;
71771;SDS011;59606;52.138;5.424;2023-08-06T14:20:43;4.15;;;1.67;;
71771;SDS011;59606;52.138;5.424;2023-08-06T14:23:10;6.57;;;2.03;;
71771;SDS011;59606;52.138;5.424;2023-08-06T14:25:38;4.88;;;1.90;;
71771;SDS011;59606;52.138;5.424;2023-08-06T14:28:05;3.88;;;1.65;;
71771;SDS011;59606;52.138;5.424;2023-08-06T14:30:33;4.03;;;1.83;;
71771;SDS011;59606;52.138;5.424;2023-08-06T14:33:00;5.28;;;2.05;;
71771;SDS011;59606;52.138;5.424;2023-08-06T14:35:47;4.95;;;2.13;;
71771;SDS011;59606;52.138;5.424;2023-08-06T14:38:14;5.43;;;2.60;;
71771;SDS011;59606;52.138;5.424;2023-08-06T14:40:40;3.05;;;1.60;;
71771;SDS011;59606;52.138;5.424;2023-08-06T14:43:07;9.23;;;2.30;;
71771;SDS011;59606;52.138;5.424;2023-08-06T14:45:37;2.95;;;1.42;;
71771;SDS011;59606;52.138;5.424;2023-08-06T14:48:04;4.45;;;1.90;;
71771;SDS011;59606;52.138;5.424;2023-08-06T14:50:31;4.82;;;2.00;;
71771;SDS011;59606;52.138;5.424;2023-08-06T14:52:57;5.38;;;1.90;;
71771;SDS011;59606;52.138;5.424;2023-08-06T14:55:30;3.90;;;1.73;;